sensor_id;sensor_type;location;lat;lon;timestamp;pressure;altitude;pressure_sealevel;temperature;humidity
34031;BME280;20319;28.466;-16.274;2023-12-20T15:19:02;96653.63;;;17.62;74.62
34031;BME280;20319;28.466;-16.274;2023-12-20T15:21:29;96742.88;;;18.17;74.56
34031;BME280;20319;28.466;-16.274;2023-12-20T15:23:59;96662.50;;;17.78;74.79
34031;BME280;20319;28.466;-16.274;2023-12-20T15:26:34;96748.25;;;18.32;74.90
34031;BME280;20319;28.466;-16.274;2023-12-20T15:29:00;96717.06;;;18.30;74.18
34031;BME280;20319;28.466;-16.274;2023-12-20T15:31:27;96726.53;;;18.42;73.62
34031;BME280;20319;28.466;-16.274;2023-12-20T15:33:53;96726.22;;;18.54;73.71
34031;BME280;20319;28.466;-16.274;2023-12-20T15:36:19;96739.97;;;18.67;73.28
34031;BME280;20319;28.466;-16.274;2023-12-20T15:38:45;96642.88;;;18.11;72.66
34031;BME280;20319;28.466;-16.274;2023-12-20T15:41:18;96745.44;;;18.62;72.43
34031;BME280;20319;28.466;-16.274;2023-12-20T15:43:44;96624.31;;;17.79;72.51
34031;BME280;20319;28.466;-16.274;2023-12-20T15:46:10;96740.31;;;18.56;72.46
34031;BME280;20319;28.466;-16.274;2023-12-20T15:48:35;96626.44;;;17.87;72.45
34031;BME280;20319;28.466;-16.274;2023-12-20T15:51:05;96694.91;;;18.18;72.38
34031;BME280;20319;28.466;-16.274;2023-12-20T16:11:07;96580.88;;;17.94;71.16
34031;BME280;20319;28.466;-16.274;2023-12-20T16:27:00;96678.75;;;17.88;72.50
34031;BME280;20319;28.466;-16.274;2023-12-20T16:29:26;96624.94;;;17.51;72.18
34031;BME280;20319;28.466;-16.274;2023-12-20T16:31:51;96726.91;;;18.06;72.49
34031;BME280;20319;28.466;-16.274;2023-12-20T16:34:17;96658.50;;;17.60;73.04
34031;BME280;20319;28.466;-16.274;2023-12-20T16:36:50;96753.19;;;18.20;73.14
34031;BME280;20319;28.466;-16.274;2023-12-20T16:39:18;96671.78;;;17.51;72.63
34031;BME280;20319;28.466;-16.274;2023-12-20T16:41:44;96339.56;;;15.64;72.12
34031;BME280;20319;28.466;-16.274;2023-12-20T16:44:09;96469.75;;;16.42;71.41
34031;BME280;20319;28.466;-16.274;2023-12-20T16:46:35;96711.59;;;17.56;71.15
34031;BME280;20319;28.466;-16.274;2023-12-20T16:49:01;96589.03;;;17.00;71.59
34031;BME280;20319;28.466;-16.274;2023-12-20T16:51:26;96439.47;;;16.14;71.69
34031;BME280;20319;28.466;-16.274;2023-12-20T16:53:54;96418.44;;;16.01;71.63
34031;BME280;20319;28.466;-16.274;2023-12-20T16:56:20;96531.66;;;16.83;72.11
34031;BME280;20319;28.466;-16.274;2023-12-20T16:58:45;96710.94;;;17.99;72.37
34031;BME280;20319;28.466;-16.274;2023-12-20T17:01:11;96616.53;;;17.42;72.26
34031;BME280;20319;28.466;-16.274;2023-12-20T17:03:38;96705.31;;;17.76;72.54
34031;BME280;20319;28.466;-16.274;2023-12-20T17:06:05;96676.69;;;17.44;72.96
34031;BME280;20319;28.466;-16.274;2023-12-20T17:08:31;96553.06;;;16.65;73.33
34031;BME280;20319;28.466;-16.274;2023-12-20T17:10:58;96545.16;;;16.43;73.77
34031;BME280;20319;28.466;-16.274;2023-12-20T17:13:24;96628.53;;;17.01;74.43
34031;BME280;20319;28.466;-16.274;2023-12-20T17:15:50;96576.84;;;16.53;74.91
34031;BME280;20319;28.466;-16.274;2023-12-20T17:18:16;96571.16;;;16.59;75.11
34031;BME280;20319;28.466;-16.274;2023-12-20T17:20:41;96654.47;;;16.97;75.53
34031;BME280;20319;28.466;-16.274;2023-12-20T17:23:07;96393.28;;;15.46;75.75
34031;BME280;20319;28.466;-16.274;2023-12-20T17:25:33;96588.22;;;16.60;76.24
34031;BME280;20319;28.466;-16.274;2023-12-20T17:28:04;96502.44;;;16.10;76.35
34031;BME280;20319;28.466;-16.274;2023-12-20T17:30:30;96635.28;;;16.79;76.50
34031;BME280;20319;28.466;-16.274;2023-12-20T17:32:56;96433.22;;;15.59;76.76
34031;BME280;20319;28.466;-16.274;2023-12-20T17:35:21;96717.53;;;17.18;77.20
34031;BME280;20319;28.466;-16.274;2023-12-20T17:37:47;96759.00;;;17.48;77.43
34031;BME280;20319;28.466;-16.274;2023-12-20T17:40:13;96588.19;;;16.40;77.59
34031;BME280;20319;28.466;-16.274;2023-12-20T17:42:38;96666.13;;;16.78;78.15
34031;BME280;20319;28.466;-16.274;2023-12-20T17:45:04;96470.00;;;15.65;78.13
34031;BME280;20319;28.466;-16.274;2023-12-20T17:47:30;96481.00;;;15.48;78.95
34031;BME280;20319;28.466;-16.274;2023-12-20T17:49:55;96714.56;;;16.89;80.71
34031;BME280;20319;28.466;-16.274;2023-12-20T17:52:21;96591.59;;;16.05;82.02
34031;BME280;20319;28.466;-16.274;2023-12-20T17:54:47;96754.63;;;16.92;83.43
34031;BME280;20319;28.466;-16.274;2023-12-20T17:57:12;96585.88;;;15.81;84.85
34031;BME280;20319;28.466;-16.274;2023-12-20T17:59:38;96708.03;;;16.60;85.46
34031;BME280;20319;28.466;-16.274;2023-12-20T18:02:05;96456.00;;;15.01;86.45
34031;BME280;20319;28.466;-16.274;2023-12-20T18:04:31;96718.00;;;16.55;87.72
34031;BME280;20319;28.466;-16.274;2023-12-20T18:06:56;96639.97;;;16.06;88.56
34031;BME280;20319;28.466;-16.274;2023-12-20T18:09:22;96707.94;;;16.30;89.38
34031;BME280;20319;28.466;-16.274;2023-12-20T18:11:48;96623.72;;;15.86;90.17
34031;BME280;20319;28.466;-16.274;2023-12-20T18:14:14;96584.19;;;15.55;90.89
34031;BME280;20319;28.466;-16.274;2023-12-20T18:16:39;96538.34;;;15.19;91.74
34031;BME280;20319;28.466;-16.274;2023-12-20T18:19:06;96800.78;;;16.61;92.98
34031;BME280;20319;28.466;-16.274;2023-12-20T18:21:31;96779.63;;;16.43;94.26
34031;BME280;20319;28.466;-16.274;2023-12-20T18:23:57;96786.34;;;16.35;95.08
34031;BME280;20319;28.466;-16.274;2023-12-20T18:26:22;96439.88;;;14.23;95.30
34031;BME280;20319;28.466;-16.274;2023-12-20T18:28:48;96729.09;;;15.91;96.25
34031;BME280;20319;28.466;-16.274;2023-12-20T18:31:14;96802.84;;;16.44;96.77
34031;BME280;20319;28.466;-16.274;2023-12-20T18:33:40;96612.22;;;15.08;97.23
34031;BME280;20319;28.466;-16.274;2023-12-20T18:36:06;96713.06;;;15.70;97.79
34031;BME280;20319;28.466;-16.274;2023-12-20T18:38:32;96710.84;;;15.62;98.66
34031;BME280;20319;28.466;-16.274;2023-12-20T18:40:59;96761.03;;;15.99;99.27
34031;BME280;20319;28.466;-16.274;2023-12-20T18:43:25;96478.91;;;14.20;99.54
34031;BME280;20319;28.466;-16.274;2023-12-20T18:45:54;96672.13;;;15.46;100.00
34031;BME280;20319;28.466;-16.274;2023-12-20T18:48:20;96729.94;;;15.97;100.00
34031;BME280;20319;28.466;-16.274;2023-12-20T18:50:46;96640.97;;;15.34;100.00
34031;BME280;20319;28.466;-16.274;2023-12-20T18:53:12;96734.03;;;16.04;100.00
34031;BME280;20319;28.466;-16.274;2023-12-20T18:55:38;96722.59;;;15.87;100.00
34031;BME280;20319;28.466;-16.274;2023-12-20T18:58:04;96740.19;;;15.95;100.00
34031;BME280;20319;28.466;-16.274;2023-12-20T19:00:29;96745.13;;;16.03;100.00
34031;BME280;20319;28.466;-16.274;2023-12-20T19:02:55;96745.34;;;15.96;100.00
34031;BME280;20319;28.466;-16.274;2023-12-20T19:05:21;96798.72;;;16.26;100.00
34031;BME280;20319;28.466;-16.274;2023-12-20T19:07:47;96722.28;;;15.79;100.00
34031;BME280;20319;28.466;-16.274;2023-12-20T19:10:14;96587.00;;;14.92;100.00
34031;BME280;20319;28.466;-16.274;2023-12-20T19:12:39;96498.91;;;14.24;100.00
34031;BME280;20319;28.466;-16.274;2023-12-20T19:15:05;96743.69;;;15.90;100.00
34031;BME280;20319;28.466;-16.274;2023-12-20T19:17:31;96757.13;;;15.80;100.00
34031;BME280;20319;28.466;-16.274;2023-12-20T19:19:57;96537.16;;;14.58;100.00
34031;BME280;20319;28.466;-16.274;2023-12-20T19:22:22;96641.47;;;15.26;100.00
34031;BME280;20319;28.466;-16.274;2023-12-20T19:24:49;96584.78;;;14.84;100.00
34031;BME280;20319;28.466;-16.274;2023-12-20T19:27:15;96660.91;;;15.28;100.00
34031;BME280;20319;28.466;-16.274;2023-12-20T19:29:41;96478.78;;;14.05;100.00
34031;BME280;20319;28.466;-16.274;2023-12-20T19:32:07;96635.38;;;15.04;100.00
34031;BME280;20319;28.466;-16.274;2023-12-20T19:34:32;96772.56;;;15.85;100.00
34031;BME280;20319;28.466;-16.274;2023-12-20T19:36:58;96708.56;;;15.44;100.00
34031;BME280;20319;28.466;-16.274;2023-12-20T19:39:24;96775.00;;;15.86;100.00
34031;BME280;20319;28.466;-16.274;2023-12-20T19:41:49;96481.22;;;14.07;100.00
34031;BME280;20319;28.466;-16.274;2023-12-20T19:44:15;96757.09;;;15.75;100.00
34031;BME280;20319;28.466;-16.274;2023-12-20T19:46:42;96674.59;;;15.16;100.00
34031;BME280;20319;28.466;-16.274;2023-12-20T19:49:09;96813.78;;;16.12;100.00
34031;BME280;20319;28.466;-16.274;2023-12-20T19:51:35;96805.88;;;16.00;100.00
34031;BME280;20319;28.466;-16.274;2023-12-20T19:54:01;96559.53;;;14.53;100.00
34031;BME280;20319;28.466;-16.274;2023-12-20T19:56:26;96569.34;;;14.38;100.00
34031;BME280;20319;28.466;-16.274;2023-12-20T19:58:52;96679.47;;;15.14;100.00
34031;BME280;20319;28.466;-16.274;2023-12-20T20:01:18;96791.69;;;15.78;100.00
34031;BME280;20319;28.466;-16.274;2023-12-20T20:03:43;96682.16;;;15.14;100.00
34031;BME280;20319;28.466;-16.274;2023-12-20T20:06:09;96576.75;;;14.52;99.66
34031;BME280;20319;28.466;-16.274;2023-12-20T20:08:35;96587.25;;;14.54;98.52
34031;BME280;20319;28.466;-16.274;2023-12-20T20:11:00;96591.66;;;14.60;98.09
34031;BME280;20319;28.466;-16.274;2023-12-20T20:13:26;96734.22;;;15.46;97.82
34031;BME280;20319;28.466;-16.274;2023-12-20T20:15:51;96839.16;;;16.06;96.93
34031;BME280;20319;28.466;-16.274;2023-12-20T20:18:17;96521.66;;;14.12;95.98
34031;BME280;20319;28.466;-16.274;2023-12-20T20:20:45;96546.56;;;14.24;94.90
34031;BME280;20319;28.466;-16.274;2023-12-20T20:23:10;96748.31;;;15.53;92.92
34031;BME280;20319;28.466;-16.274;2023-12-20T20:25:36;96764.69;;;15.42;92.17
34031;BME280;20319;28.466;-16.274;2023-12-20T20:28:02;96677.41;;;14.95;91.18
34031;BME280;20319;28.466;-16.274;2023-12-20T20:30:27;96799.78;;;15.78;90.41
34031;BME280;20319;28.466;-16.274;2023-12-20T20:32:53;96689.97;;;14.84;89.66
34031;BME280;20319;28.466;-16.274;2023-12-20T20:35:19;96775.50;;;15.42;89.08
34031;BME280;20319;28.466;-16.274;2023-12-20T20:37:48;96794.63;;;15.72;88.76
34031;BME280;20319;28.466;-16.274;2023-12-20T20:40:14;96706.47;;;15.19;88.70
34031;BME280;20319;28.466;-16.274;2023-12-20T20:42:43;96784.81;;;15.61;88.30
34031;BME280;20319;28.466;-16.274;2023-12-20T20:45:12;96773.75;;;15.62;88.27
34031;BME280;20319;28.466;-16.274;2023-12-20T20:47:38;96761.28;;;15.56;88.40
34031;BME280;20319;28.466;-16.274;2023-12-20T20:50:05;96481.84;;;13.87;87.80
34031;BME280;20319;28.466;-16.274;2023-12-20T20:52:30;96598.19;;;14.69;87.59
34031;BME280;20319;28.466;-16.274;2023-12-20T20:54:56;96726.13;;;15.46;87.46
34031;BME280;20319;28.466;-16.274;2023-12-20T20:57:23;96530.97;;;14.26;87.31
34031;BME280;20319;28.466;-16.274;2023-12-20T20:59:48;96716.09;;;15.42;87.78
34031;BME280;20319;28.466;-16.274;2023-12-20T21:02:14;96629.59;;;14.85;87.70
34031;BME280;20319;28.466;-16.274;2023-12-20T21:04:40;96631.22;;;14.86;87.60
34031;BME280;20319;28.466;-16.274;2023-12-20T21:07:05;96610.09;;;14.78;87.94
34031;BME280;20319;28.466;-16.274;2023-12-20T21:09:31;96536.97;;;14.33;87.93
34031;BME280;20319;28.466;-16.274;2023-12-20T21:11:56;96497.13;;;14.08;88.42
34031;BME280;20319;28.466;-16.274;2023-12-20T21:14:22;96840.75;;;16.02;88.71
34031;BME280;20319;28.466;-16.274;2023-12-20T21:16:48;96436.09;;;13.61;88.52
34031;BME280;20319;28.466;-16.274;2023-12-20T21:19:13;96777.63;;;15.71;89.28
34031;BME280;20319;28.466;-16.274;2023-12-20T21:21:39;96642.28;;;14.90;89.24
34031;BME280;20319;28.466;-16.274;2023-12-20T21:24:05;96771.53;;;15.54;89.20
34031;BME280;20319;28.466;-16.274;2023-12-20T21:26:30;96665.31;;;15.02;89.05
34031;BME280;20319;28.466;-16.274;2023-12-20T21:28:56;96767.69;;;15.45;89.32
34031;BME280;20319;28.466;-16.274;2023-12-20T21:31:22;96791.25;;;15.55;89.72
34031;BME280;20319;28.466;-16.274;2023-12-20T21:33:47;96659.84;;;14.92;89.76
34031;BME280;20319;28.466;-16.274;2023-12-20T21:36:13;96825.34;;;16.02;90.23
34031;BME280;20319;28.466;-16.274;2023-12-20T21:38:45;96622.19;;;14.70;90.40
34031;BME280;20319;28.466;-16.274;2023-12-20T21:41:10;96820.94;;;15.86;90.78
34031;BME280;20319;28.466;-16.274;2023-12-20T21:43:36;96552.53;;;14.26;90.67
34031;BME280;20319;28.466;-16.274;2023-12-20T21:46:02;96803.13;;;15.90;90.73
34031;BME280;20319;28.466;-16.274;2023-12-20T21:48:28;96634.16;;;14.84;90.70
34031;BME280;20319;28.466;-16.274;2023-12-20T21:50:53;96589.50;;;14.62;90.92
34031;BME280;20319;28.466;-16.274;2023-12-20T21:53:19;96625.56;;;14.56;91.31
34031;BME280;20319;28.466;-16.274;2023-12-20T21:55:44;96727.91;;;15.36;91.76
34031;BME280;20319;28.466;-16.274;2023-12-20T21:58:10;96620.31;;;14.71;92.32
34031;BME280;20319;28.466;-16.274;2023-12-20T22:00:36;96868.63;;;16.07;92.74
34031;BME280;20319;28.466;-16.274;2023-12-20T22:03:02;96838.06;;;16.07;93.59
34031;BME280;20319;28.466;-16.274;2023-12-20T22:05:38;96710.72;;;15.10;93.58
34031;BME280;20319;28.466;-16.274;2023-12-20T22:08:05;96575.84;;;14.42;94.17
34031;BME280;20319;28.466;-16.274;2023-12-20T22:10:31;96675.84;;;15.04;94.92
34031;BME280;20319;28.466;-16.274;2023-12-20T22:12:57;96821.19;;;15.85;95.60
34031;BME280;20319;28.466;-16.274;2023-12-20T22:15:22;96791.25;;;15.55;95.94
34031;BME280;20319;28.466;-16.274;2023-12-20T22:17:48;96697.38;;;14.67;96.02
34031;BME280;20319;28.466;-16.274;2023-12-20T22:20:14;96774.00;;;15.29;96.66
34031;BME280;20319;28.466;-16.274;2023-12-20T22:22:40;96838.00;;;15.55;97.22
34031;BME280;20319;28.466;-16.274;2023-12-20T22:25:06;96537.75;;;13.75;97.62
34031;BME280;20319;28.466;-16.274;2023-12-20T22:27:31;96516.28;;;13.59;97.70
34031;BME280;20319;28.466;-16.274;2023-12-20T22:29:57;96807.88;;;15.42;98.59
34031;BME280;20319;28.466;-16.274;2023-12-20T22:32:23;96619.13;;;14.30;98.68
34031;BME280;20319;28.466;-16.274;2023-12-20T22:34:50;96568.44;;;14.01;98.83
34031;BME280;20319;28.466;-16.274;2023-12-20T22:37:15;96708.59;;;14.80;99.17
34031;BME280;20319;28.466;-16.274;2023-12-20T22:39:41;96590.31;;;14.09;99.35
34031;BME280;20319;28.466;-16.274;2023-12-20T22:42:06;96804.94;;;15.43;99.92
34031;BME280;20319;28.466;-16.274;2023-12-20T22:44:32;96453.53;;;13.26;99.49
34031;BME280;20319;28.466;-16.274;2023-12-20T22:46:58;96819.13;;;15.60;100.00
34031;BME280;20319;28.466;-16.274;2023-12-20T22:49:23;96843.53;;;15.75;100.00
34031;BME280;20319;28.466;-16.274;2023-12-20T22:51:49;96689.97;;;14.79;100.00
34031;BME280;20319;28.466;-16.274;2023-12-20T22:54:15;96794.19;;;15.48;100.00
34031;BME280;20319;28.466;-16.274;2023-12-20T22:56:40;96744.38;;;15.03;99.74
34031;BME280;20319;28.466;-16.274;2023-12-20T22:59:06;96469.06;;;13.46;99.28
34031;BME280;20319;28.466;-16.274;2023-12-20T23:01:32;96607.03;;;14.33;98.85
34031;BME280;20319;28.466;-16.274;2023-12-20T23:03:57;96691.31;;;14.81;98.76
34031;BME280;20319;28.466;-16.274;2023-12-20T23:21:42;96564.31;;;14.46;93.66
34031;BME280;20319;28.466;-16.274;2023-12-20T23:24:07;96690.44;;;15.03;94.88
34031;BME280;20319;28.466;-16.274;2023-12-20T23:26:37;96544.03;;;14.12;95.17
34031;BME280;20319;28.466;-16.274;2023-12-20T23:29:03;96606.06;;;14.44;94.93
34031;BME280;20319;28.466;-16.274;2023-12-20T23:31:29;96600.38;;;14.14;93.67
34031;BME280;20319;28.466;-16.274;2023-12-20T23:33:54;96792.66;;;15.31;92.86
34031;BME280;20319;28.466;-16.274;2023-12-20T23:36:20;96790.00;;;15.36;91.08
34031;BME280;20319;28.466;-16.274;2023-12-20T23:38:46;96650.09;;;14.54;90.11
34031;BME280;20319;28.466;-16.274;2023-12-20T23:41:11;96692.03;;;14.72;88.87
34031;BME280;20319;28.466;-16.274;2023-12-20T23:43:37;96766.03;;;15.13;87.34
34031;BME280;20319;28.466;-16.274;2023-12-20T23:46:03;96794.91;;;15.39;86.82
34031;BME280;20319;28.466;-16.274;2023-12-20T23:48:30;96832.38;;;15.62;86.54
34031;BME280;20319;28.466;-16.274;2023-12-20T23:50:56;96748.22;;;15.12;86.06
34031;BME280;20319;28.466;-16.274;2023-12-20T23:53:22;96792.38;;;15.32;85.26
34031;BME280;20319;28.466;-16.274;2023-12-20T23:55:47;96585.97;;;14.03;85.23
34031;BME280;20319;28.466;-16.274;2023-12-20T23:58:13;96772.78;;;15.10;85.41
